sensor_id;sensor_type;location;lat;lon;timestamp;temperature;humidity
6210;DHT22;3138;52.550;13.148;2022-07-17T00:01:29;12.10;99.90
6210;DHT22;3138;52.550;13.148;2022-07-17T00:03:56;12.00;99.90
6210;DHT22;3138;52.550;13.148;2022-07-17T00:06:23;11.90;99.90
6210;DHT22;3138;52.550;13.148;2022-07-17T00:08:51;11.80;99.90
6210;DHT22;3138;52.550;13.148;2022-07-17T00:11:18;11.60;99.90
6210;DHT22;3138;52.550;13.148;2022-07-17T00:13:44;11.40;99.90
6210;DHT22;3138;52.550;13.148;2022-07-17T00:16:11;11.40;99.90
6210;DHT22;3138;52.550;13.148;2022-07-17T00:18:38;11.30;99.90
6210;DHT22;3138;52.550;13.148;2022-07-17T00:21:05;11.20;99.90
6210;DHT22;3138;52.550;13.148;2022-07-17T00:23:32;11.10;99.90
6210;DHT22;3138;52.550;13.148;2022-07-17T00:26:00;11.10;99.90
6210;DHT22;3138;52.550;13.148;2022-07-17T00:28:27;11.10;99.90
6210;DHT22;3138;52.550;13.148;2022-07-17T00:30:53;10.90;99.90
6210;DHT22;3138;52.550;13.148;2022-07-17T00:33:20;10.80;99.90
6210;DHT22;3138;52.550;13.148;2022-07-17T00:35:47;10.70;99.90
6210;DHT22;3138;52.550;13.148;2022-07-17T00:38:14;10.70;99.90
6210;DHT22;3138;52.550;13.148;2022-07-17T00:40:41;10.60;99.90
6210;DHT22;3138;52.550;13.148;2022-07-17T00:43:09;10.50;99.90
6210;DHT22;3138;52.550;13.148;2022-07-17T00:45:36;10.40;99.90
6210;DHT22;3138;52.550;13.148;2022-07-17T00:48:05;10.30;99.90
6210;DHT22;3138;52.550;13.148;2022-07-17T00:50:33;10.20;99.90
6210;DHT22;3138;52.550;13.148;2022-07-17T00:53:01;10.20;99.90
6210;DHT22;3138;52.550;13.148;2022-07-17T00:55:28;10.00;99.90
6210;DHT22;3138;52.550;13.148;2022-07-17T00:57:55;10.00;99.90
6210;DHT22;3138;52.550;13.148;2022-07-17T01:00:23;10.00;99.90
6210;DHT22;3138;52.550;13.148;2022-07-17T01:02:52;9.90;99.90
6210;DHT22;3138;52.550;13.148;2022-07-17T01:05:20;9.80;99.90
6210;DHT22;3138;52.550;13.148;2022-07-17T01:07:47;9.80;99.90
6210;DHT22;3138;52.550;13.148;2022-07-17T01:10:15;9.70;99.90
6210;DHT22;3138;52.550;13.148;2022-07-17T01:12:43;9.60;99.90
6210;DHT22;3138;52.550;13.148;2022-07-17T01:15:10;9.60;99.90
6210;DHT22;3138;52.550;13.148;2022-07-17T01:17:39;9.60;99.90
6210;DHT22;3138;52.550;13.148;2022-07-17T01:20:07;9.50;99.90
6210;DHT22;3138;52.550;13.148;2022-07-17T01:22:41;9.50;99.90
6210;DHT22;3138;52.550;13.148;2022-07-17T01:25:08;9.40;99.90
6210;DHT22;3138;52.550;13.148;2022-07-17T01:27:36;9.40;99.90
6210;DHT22;3138;52.550;13.148;2022-07-17T01:30:03;9.30;99.90
6210;DHT22;3138;52.550;13.148;2022-07-17T01:32:32;9.30;99.90
6210;DHT22;3138;52.550;13.148;2022-07-17T01:34:58;9.20;99.90
6210;DHT22;3138;52.550;13.148;2022-07-17T01:37:25;9.20;99.90
6210;DHT22;3138;52.550;13.148;2022-07-17T01:39:53;9.20;99.90
6210;DHT22;3138;52.550;13.148;2022-07-17T01:42:21;9.20;99.90
6210;DHT22;3138;52.550;13.148;2022-07-17T01:44:48;9.20;99.90
6210;DHT22;3138;52.550;13.148;2022-07-17T01:47:15;9.20;99.90
6210;DHT22;3138;52.550;13.148;2022-07-17T01:49:46;9.10;99.90
6210;DHT22;3138;52.550;13.148;2022-07-17T01:52:13;9.30;99.90
6210;DHT22;3138;52.550;13.148;2022-07-17T01:54:40;9.10;99.90
6210;DHT22;3138;52.550;13.148;2022-07-17T01:57:09;9.00;99.90
6210;DHT22;3138;52.550;13.148;2022-07-17T01:59:37;9.00;99.90
6210;DHT22;3138;52.550;13.148;2022-07-17T02:02:04;8.90;99.90
6210;DHT22;3138;52.550;13.148;2022-07-17T02:04:32;8.80;99.90
6210;DHT22;3138;52.550;13.148;2022-07-17T02:06:58;8.80;99.90
6210;DHT22;3138;52.550;13.148;2022-07-17T02:09:25;8.70;99.90
6210;DHT22;3138;52.550;13.148;2022-07-17T02:11:52;8.80;99.90
6210;DHT22;3138;52.550;13.148;2022-07-17T02:14:20;8.70;99.90
6210;DHT22;3138;52.550;13.148;2022-07-17T02:16:47;8.70;99.90
6210;DHT22;3138;52.550;13.148;2022-07-17T02:19:14;8.60;99.90
6210;DHT22;3138;52.550;13.148;2022-07-17T02:21:41;8.60;99.90
6210;DHT22;3138;52.550;13.148;2022-07-17T02:24:08;8.50;99.90
6210;DHT22;3138;52.550;13.148;2022-07-17T02:26:34;8.50;99.90
6210;DHT22;3138;52.550;13.148;2022-07-17T02:29:01;8.40;99.90
6210;DHT22;3138;52.550;13.148;2022-07-17T02:31:29;8.40;99.90
6210;DHT22;3138;52.550;13.148;2022-07-17T02:33:56;8.40;99.90
6210;DHT22;3138;52.550;13.148;2022-07-17T02:36:23;8.40;99.90
6210;DHT22;3138;52.550;13.148;2022-07-17T02:38:50;8.30;99.90
6210;DHT22;3138;52.550;13.148;2022-07-17T02:41:17;8.30;99.90
6210;DHT22;3138;52.550;13.148;2022-07-17T02:43:43;8.20;99.90
6210;DHT22;3138;52.550;13.148;2022-07-17T02:46:10;8.20;99.90
6210;DHT22;3138;52.550;13.148;2022-07-17T02:48:40;8.10;99.90
6210;DHT22;3138;52.550;13.148;2022-07-17T02:51:07;8.30;99.90
6210;DHT22;3138;52.550;13.148;2022-07-17T02:53:34;8.40;99.90
6210;DHT22;3138;52.550;13.148;2022-07-17T02:56:01;8.40;99.90
6210;DHT22;3138;52.550;13.148;2022-07-17T02:58:27;8.40;99.90
6210;DHT22;3138;52.550;13.148;2022-07-17T03:00:54;8.30;99.90
6210;DHT22;3138;52.550;13.148;2022-07-17T03:03:21;8.30;99.90
6210;DHT22;3138;52.550;13.148;2022-07-17T03:05:49;8.30;99.90
6210;DHT22;3138;52.550;13.148;2022-07-17T03:08:16;8.30;99.90
6210;DHT22;3138;52.550;13.148;2022-07-17T03:10:43;8.20;99.90
6210;DHT22;3138;52.550;13.148;2022-07-17T03:13:09;8.10;99.90
6210;DHT22;3138;52.550;13.148;2022-07-17T03:15:36;8.10;99.90
6210;DHT22;3138;52.550;13.148;2022-07-17T03:18:03;8.10;99.90
6210;DHT22;3138;52.550;13.148;2022-07-17T03:20:30;8.10;99.90
6210;DHT22;3138;52.550;13.148;2022-07-17T03:22:58;8.10;99.90
6210;DHT22;3138;52.550;13.148;2022-07-17T03:25:25;8.10;99.90
6210;DHT22;3138;52.550;13.148;2022-07-17T03:27:51;8.20;99.90
6210;DHT22;3138;52.550;13.148;2022-07-17T03:30:18;8.10;99.90
6210;DHT22;3138;52.550;13.148;2022-07-17T03:32:45;8.20;99.90
6210;DHT22;3138;52.550;13.148;2022-07-17T03:35:11;8.20;99.90
6210;DHT22;3138;52.550;13.148;2022-07-17T03:37:38;8.20;99.90
6210;DHT22;3138;52.550;13.148;2022-07-17T03:40:08;8.40;99.90
6210;DHT22;3138;52.550;13.148;2022-07-17T03:42:35;8.60;99.90
6210;DHT22;3138;52.550;13.148;2022-07-17T03:45:02;9.00;99.90
6210;DHT22;3138;52.550;13.148;2022-07-17T03:47:29;9.90;99.90
6210;DHT22;3138;52.550;13.148;2022-07-17T03:49:55;11.00;99.90
6210;DHT22;3138;52.550;13.148;2022-07-17T03:52:22;11.70;99.90
6210;DHT22;3138;52.550;13.148;2022-07-17T03:54:49;12.10;99.90
6210;DHT22;3138;52.550;13.148;2022-07-17T03:57:17;12.10;99.90
6210;DHT22;3138;52.550;13.148;2022-07-17T03:59:44;12.30;99.90
6210;DHT22;3138;52.550;13.148;2022-07-17T04:02:10;12.60;99.90
6210;DHT22;3138;52.550;13.148;2022-07-17T04:04:37;13.30;99.90
6210;DHT22;3138;52.550;13.148;2022-07-17T04:07:04;13.50;99.90
6210;DHT22;3138;52.550;13.148;2022-07-17T04:09:31;13.40;99.90
6210;DHT22;3138;52.550;13.148;2022-07-17T04:11:57;13.90;99.90
6210;DHT22;3138;52.550;13.148;2022-07-17T04:14:26;14.40;99.90
6210;DHT22;3138;52.550;13.148;2022-07-17T04:16:52;14.50;99.90
6210;DHT22;3138;52.550;13.148;2022-07-17T04:19:19;14.90;99.90
6210;DHT22;3138;52.550;13.148;2022-07-17T04:21:46;14.90;99.90
6210;DHT22;3138;52.550;13.148;2022-07-17T04:24:12;14.30;99.90
6210;DHT22;3138;52.550;13.148;2022-07-17T04:26:39;13.30;99.90
6210;DHT22;3138;52.550;13.148;2022-07-17T04:29:07;12.80;99.90
6210;DHT22;3138;52.550;13.148;2022-07-17T04:31:35;12.60;99.90
6210;DHT22;3138;52.550;13.148;2022-07-17T04:34:02;12.40;99.90
6210;DHT22;3138;52.550;13.148;2022-07-17T04:36:28;12.40;99.90
6210;DHT22;3138;52.550;13.148;2022-07-17T04:38:55;12.60;99.90
6210;DHT22;3138;52.550;13.148;2022-07-17T04:41:22;12.70;99.90
6210;DHT22;3138;52.550;13.148;2022-07-17T04:43:49;12.80;99.90
6210;DHT22;3138;52.550;13.148;2022-07-17T04:46:15;12.90;99.90
6210;DHT22;3138;52.550;13.148;2022-07-17T04:48:43;12.90;99.90
6210;DHT22;3138;52.550;13.148;2022-07-17T04:51:10;12.90;99.90
6210;DHT22;3138;52.550;13.148;2022-07-17T04:53:37;12.90;99.90
6210;DHT22;3138;52.550;13.148;2022-07-17T04:56:04;13.20;99.90
6210;DHT22;3138;52.550;13.148;2022-07-17T04:58:31;13.20;99.90
6210;DHT22;3138;52.550;13.148;2022-07-17T05:00:58;13.40;99.90
6210;DHT22;3138;52.550;13.148;2022-07-17T05:03:24;13.40;99.90
6210;DHT22;3138;52.550;13.148;2022-07-17T05:05:52;13.50;99.90
6210;DHT22;3138;52.550;13.148;2022-07-17T05:08:19;13.70;99.90
6210;DHT22;3138;52.550;13.148;2022-07-17T05:10:46;13.80;99.90
6210;DHT22;3138;52.550;13.148;2022-07-17T05:13:13;13.90;99.90
6210;DHT22;3138;52.550;13.148;2022-07-17T05:15:39;14.10;99.90
6210;DHT22;3138;52.550;13.148;2022-07-17T05:18:06;14.20;99.90
6210;DHT22;3138;52.550;13.148;2022-07-17T05:20:33;14.30;99.90
6210;DHT22;3138;52.550;13.148;2022-07-17T05:23:02;14.60;99.90
6210;DHT22;3138;52.550;13.148;2022-07-17T05:25:29;14.80;99.90
6210;DHT22;3138;52.550;13.148;2022-07-17T05:27:55;14.80;99.90
6210;DHT22;3138;52.550;13.148;2022-07-17T05:30:22;15.20;99.90
6210;DHT22;3138;52.550;13.148;2022-07-17T05:32:49;15.20;99.90
6210;DHT22;3138;52.550;13.148;2022-07-17T05:35:16;15.30;99.90
6210;DHT22;3138;52.550;13.148;2022-07-17T05:37:43;15.70;99.90
6210;DHT22;3138;52.550;13.148;2022-07-17T05:40:11;15.70;99.90
6210;DHT22;3138;52.550;13.148;2022-07-17T05:42:38;16.00;99.90
6210;DHT22;3138;52.550;13.148;2022-07-17T05:45:06;16.10;99.90
6210;DHT22;3138;52.550;13.148;2022-07-17T05:47:33;16.30;97.20
6210;DHT22;3138;52.550;13.148;2022-07-17T05:49:59;16.20;98.30
6210;DHT22;3138;52.550;13.148;2022-07-17T05:52:26;16.30;97.10
6210;DHT22;3138;52.550;13.148;2022-07-17T05:54:53;16.30;95.80
6210;DHT22;3138;52.550;13.148;2022-07-17T05:57:21;16.60;95.00
6210;DHT22;3138;52.550;13.148;2022-07-17T05:59:48;16.50;93.50
6210;DHT22;3138;52.550;13.148;2022-07-17T06:02:14;16.60;92.70
6210;DHT22;3138;52.550;13.148;2022-07-17T06:04:41;16.80;91.10
6210;DHT22;3138;52.550;13.148;2022-07-17T06:07:08;16.60;90.10
6210;DHT22;3138;52.550;13.148;2022-07-17T06:09:34;17.10;90.40
6210;DHT22;3138;52.550;13.148;2022-07-17T06:12:01;17.20;88.70
6210;DHT22;3138;52.550;13.148;2022-07-17T06:14:29;17.10;89.70
6210;DHT22;3138;52.550;13.148;2022-07-17T06:16:56;17.00;87.30
6210;DHT22;3138;52.550;13.148;2022-07-17T06:19:23;17.10;88.00
6210;DHT22;3138;52.550;13.148;2022-07-17T06:21:49;16.70;89.60
6210;DHT22;3138;52.550;13.148;2022-07-17T06:24:16;16.10;90.70
6210;DHT22;3138;52.550;13.148;2022-07-17T06:26:43;16.40;91.70
6210;DHT22;3138;52.550;13.148;2022-07-17T06:29:10;16.60;91.10
6210;DHT22;3138;52.550;13.148;2022-07-17T06:31:38;16.40;90.50
6210;DHT22;3138;52.550;13.148;2022-07-17T06:34:06;16.60;91.30
6210;DHT22;3138;52.550;13.148;2022-07-17T06:36:33;16.40;90.90
6210;DHT22;3138;52.550;13.148;2022-07-17T06:39:00;16.50;90.70
6210;DHT22;3138;52.550;13.148;2022-07-17T06:41:26;16.10;89.70
6210;DHT22;3138;52.550;13.148;2022-07-17T06:43:53;16.20;90.40
6210;DHT22;3138;52.550;13.148;2022-07-17T06:46:20;16.30;90.80
6210;DHT22;3138;52.550;13.148;2022-07-17T06:48:48;16.20;91.20
6210;DHT22;3138;52.550;13.148;2022-07-17T06:51:17;16.20;91.20
6210;DHT22;3138;52.550;13.148;2022-07-17T06:53:44;16.00;91.30
6210;DHT22;3138;52.550;13.148;2022-07-17T06:56:10;16.00;91.20
6210;DHT22;3138;52.550;13.148;2022-07-17T06:58:37;16.00;90.80
6210;DHT22;3138;52.550;13.148;2022-07-17T07:01:04;16.20;91.60
6210;DHT22;3138;52.550;13.148;2022-07-17T07:03:31;16.50;92.00
6210;DHT22;3138;52.550;13.148;2022-07-17T07:05:59;16.40;91.10
6210;DHT22;3138;52.550;13.148;2022-07-17T07:08:26;16.60;91.30
6210;DHT22;3138;52.550;13.148;2022-07-17T07:10:52;16.50;90.40
6210;DHT22;3138;52.550;13.148;2022-07-17T07:13:19;16.40;90.90
6210;DHT22;3138;52.550;13.148;2022-07-17T07:15:46;16.50;91.30
6210;DHT22;3138;52.550;13.148;2022-07-17T07:18:13;16.50;90.80
6210;DHT22;3138;52.550;13.148;2022-07-17T07:20:39;16.30;90.40
6210;DHT22;3138;52.550;13.148;2022-07-17T07:23:07;16.30;91.00
6210;DHT22;3138;52.550;13.148;2022-07-17T07:25:34;16.40;90.70
6210;DHT22;3138;52.550;13.148;2022-07-17T07:28:01;16.70;90.40
6210;DHT22;3138;52.550;13.148;2022-07-17T07:30:28;16.90;90.60
6210;DHT22;3138;52.550;13.148;2022-07-17T07:32:55;16.80;87.80
6210;DHT22;3138;52.550;13.148;2022-07-17T07:35:22;17.00;88.40
6210;DHT22;3138;52.550;13.148;2022-07-17T07:37:49;16.80;88.70
6210;DHT22;3138;52.550;13.148;2022-07-17T07:40:17;16.40;88.80
6210;DHT22;3138;52.550;13.148;2022-07-17T07:42:43;16.40;90.10
6210;DHT22;3138;52.550;13.148;2022-07-17T07:45:10;16.40;90.70
6210;DHT22;3138;52.550;13.148;2022-07-17T07:47:41;16.30;90.40
6210;DHT22;3138;52.550;13.148;2022-07-17T07:50:09;16.30;91.10
6210;DHT22;3138;52.550;13.148;2022-07-17T07:52:36;16.30;91.80
6210;DHT22;3138;52.550;13.148;2022-07-17T07:55:04;16.40;91.10
6210;DHT22;3138;52.550;13.148;2022-07-17T07:57:32;16.60;91.70
6210;DHT22;3138;52.550;13.148;2022-07-17T07:59:58;16.80;92.40
6210;DHT22;3138;52.550;13.148;2022-07-17T08:02:25;16.50;93.50
6210;DHT22;3138;52.550;13.148;2022-07-17T08:04:52;16.50;93.80
6210;DHT22;3138;52.550;13.148;2022-07-17T08:07:19;16.70;92.70
6210;DHT22;3138;52.550;13.148;2022-07-17T08:09:46;17.10;91.20
6210;DHT22;3138;52.550;13.148;2022-07-17T08:12:14;17.70;90.40
6210;DHT22;3138;52.550;13.148;2022-07-17T08:14:42;17.70;87.10
6210;DHT22;3138;52.550;13.148;2022-07-17T08:17:09;17.70;90.40
6210;DHT22;3138;52.550;13.148;2022-07-17T08:19:35;17.60;88.10
6210;DHT22;3138;52.550;13.148;2022-07-17T08:22:02;17.50;87.70
6210;DHT22;3138;52.550;13.148;2022-07-17T08:24:29;17.50;88.80
6210;DHT22;3138;52.550;13.148;2022-07-17T08:26:56;17.80;89.30
6210;DHT22;3138;52.550;13.148;2022-07-17T08:29:23;17.90;88.80
6210;DHT22;3138;52.550;13.148;2022-07-17T08:31:51;17.90;86.10
6210;DHT22;3138;52.550;13.148;2022-07-17T08:34:19;18.10;84.10
6210;DHT22;3138;52.550;13.148;2022-07-17T08:36:45;18.30;91.00
6210;DHT22;3138;52.550;13.148;2022-07-17T08:39:12;18.10;82.00
6210;DHT22;3138;52.550;13.148;2022-07-17T08:41:39;17.60;83.90
6210;DHT22;3138;52.550;13.148;2022-07-17T08:44:07;17.80;83.30
6210;DHT22;3138;52.550;13.148;2022-07-17T08:46:36;18.10;82.20
6210;DHT22;3138;52.550;13.148;2022-07-17T08:49:06;18.00;81.80
6210;DHT22;3138;52.550;13.148;2022-07-17T08:51:34;18.10;84.20
6210;DHT22;3138;52.550;13.148;2022-07-17T08:54:01;18.30;83.30
6210;DHT22;3138;52.550;13.148;2022-07-17T08:56:28;18.10;83.60
6210;DHT22;3138;52.550;13.148;2022-07-17T08:58:55;18.30;81.50
6210;DHT22;3138;52.550;13.148;2022-07-17T09:01:22;18.40;79.60
6210;DHT22;3138;52.550;13.148;2022-07-17T09:03:55;18.70;81.70
6210;DHT22;3138;52.550;13.148;2022-07-17T09:06:23;18.60;80.00
6210;DHT22;3138;52.550;13.148;2022-07-17T09:09:03;18.00;82.20
6210;DHT22;3138;52.550;13.148;2022-07-17T09:11:41;18.10;81.40
6210;DHT22;3138;52.550;13.148;2022-07-17T09:14:08;18.40;85.10
6210;DHT22;3138;52.550;13.148;2022-07-17T09:16:35;18.20;83.20
6210;DHT22;3138;52.550;13.148;2022-07-17T09:19:02;18.20;83.40
6210;DHT22;3138;52.550;13.148;2022-07-17T09:21:30;18.10;84.30
6210;DHT22;3138;52.550;13.148;2022-07-17T09:23:59;18.30;83.70
6210;DHT22;3138;52.550;13.148;2022-07-17T09:26:26;18.30;81.10
6210;DHT22;3138;52.550;13.148;2022-07-17T09:28:53;18.40;83.90
6210;DHT22;3138;52.550;13.148;2022-07-17T09:31:27;18.20;82.00
6210;DHT22;3138;52.550;13.148;2022-07-17T09:33:54;18.00;82.30
6210;DHT22;3138;52.550;13.148;2022-07-17T09:36:21;18.20;82.00
6210;DHT22;3138;52.550;13.148;2022-07-17T09:38:54;18.30;80.20
6210;DHT22;3138;52.550;13.148;2022-07-17T09:41:22;18.60;82.90
6210;DHT22;3138;52.550;13.148;2022-07-17T09:43:50;18.60;80.30
6210;DHT22;3138;52.550;13.148;2022-07-17T09:46:20;18.30;78.50
6210;DHT22;3138;52.550;13.148;2022-07-17T09:48:48;18.40;79.80
6210;DHT22;3138;52.550;13.148;2022-07-17T09:51:17;18.70;82.30
6210;DHT22;3138;52.550;13.148;2022-07-17T09:53:45;19.00;80.20
6210;DHT22;3138;52.550;13.148;2022-07-17T09:56:16;18.70;77.00
6210;DHT22;3138;52.550;13.148;2022-07-17T09:58:46;19.00;77.10
6210;DHT22;3138;52.550;13.148;2022-07-17T10:01:14;19.30;78.10
6210;DHT22;3138;52.550;13.148;2022-07-17T10:03:41;19.40;77.60
6210;DHT22;3138;52.550;13.148;2022-07-17T10:06:08;19.50;76.80
6210;DHT22;3138;52.550;13.148;2022-07-17T10:08:35;19.60;77.50
6210;DHT22;3138;52.550;13.148;2022-07-17T10:11:03;19.60;74.20
6210;DHT22;3138;52.550;13.148;2022-07-17T10:13:31;20.10;74.70
6210;DHT22;3138;52.550;13.148;2022-07-17T10:15:58;19.20;73.70
6210;DHT22;3138;52.550;13.148;2022-07-17T10:18:34;19.20;78.20
6210;DHT22;3138;52.550;13.148;2022-07-17T10:21:11;19.70;77.60
6210;DHT22;3138;52.550;13.148;2022-07-17T10:23:40;19.30;75.90
6210;DHT22;3138;52.550;13.148;2022-07-17T10:26:07;19.10;72.20
6210;DHT22;3138;52.550;13.148;2022-07-17T10:28:40;18.90;74.80
6210;DHT22;3138;52.550;13.148;2022-07-17T10:31:07;19.20;72.10
6210;DHT22;3138;52.550;13.148;2022-07-17T10:33:35;19.50;70.30
6210;DHT22;3138;52.550;13.148;2022-07-17T10:36:02;19.90;70.40
6210;DHT22;3138;52.550;13.148;2022-07-17T10:38:29;19.80;69.50
6210;DHT22;3138;52.550;13.148;2022-07-17T10:40:59;20.30;70.00
6210;DHT22;3138;52.550;13.148;2022-07-17T10:43:27;20.80;74.50
6210;DHT22;3138;52.550;13.148;2022-07-17T10:45:55;21.60;71.50
6210;DHT22;3138;52.550;13.148;2022-07-17T10:48:22;21.60;68.10
6210;DHT22;3138;52.550;13.148;2022-07-17T10:50:51;21.60;67.80
6210;DHT22;3138;52.550;13.148;2022-07-17T10:53:20;21.40;67.70
6210;DHT22;3138;52.550;13.148;2022-07-17T10:55:49;20.40;66.40
6210;DHT22;3138;52.550;13.148;2022-07-17T10:58:19;20.20;67.20
6210;DHT22;3138;52.550;13.148;2022-07-17T11:00:58;20.10;67.50
6210;DHT22;3138;52.550;13.148;2022-07-17T11:03:25;19.90;70.40
6210;DHT22;3138;52.550;13.148;2022-07-17T11:05:52;19.90;68.60
6210;DHT22;3138;52.550;13.148;2022-07-17T11:08:19;19.90;68.40
6210;DHT22;3138;52.550;13.148;2022-07-17T11:10:46;20.30;65.40
6210;DHT22;3138;52.550;13.148;2022-07-17T11:13:14;20.60;67.10
6210;DHT22;3138;52.550;13.148;2022-07-17T11:15:45;20.80;66.30
6210;DHT22;3138;52.550;13.148;2022-07-17T11:18:15;20.90;68.40
6210;DHT22;3138;52.550;13.148;2022-07-17T11:20:53;20.80;64.30
6210;DHT22;3138;52.550;13.148;2022-07-17T11:23:22;21.50;70.70
6210;DHT22;3138;52.550;13.148;2022-07-17T11:26:01;21.70;65.40
6210;DHT22;3138;52.550;13.148;2022-07-17T11:28:30;21.90;65.20
6210;DHT22;3138;52.550;13.148;2022-07-17T11:30:58;22.20;65.30
6210;DHT22;3138;52.550;13.148;2022-07-17T11:33:27;22.70;64.70
6210;DHT22;3138;52.550;13.148;2022-07-17T11:35:54;22.00;60.00
6210;DHT22;3138;52.550;13.148;2022-07-17T11:38:25;22.00;60.50
6210;DHT22;3138;52.550;13.148;2022-07-17T11:40:52;21.30;59.60
6210;DHT22;3138;52.550;13.148;2022-07-17T11:43:19;21.50;61.70
6210;DHT22;3138;52.550;13.148;2022-07-17T11:45:46;21.50;59.60
6210;DHT22;3138;52.550;13.148;2022-07-17T11:48:13;21.80;60.50
6210;DHT22;3138;52.550;13.148;2022-07-17T11:50:52;21.70;58.40
6210;DHT22;3138;52.550;13.148;2022-07-17T11:53:19;22.10;58.10
6210;DHT22;3138;52.550;13.148;2022-07-17T11:55:45;21.80;55.90
6210;DHT22;3138;52.550;13.148;2022-07-17T11:58:12;21.70;56.60
6210;DHT22;3138;52.550;13.148;2022-07-17T12:00:39;21.80;55.60
6210;DHT22;3138;52.550;13.148;2022-07-17T12:03:06;21.70;56.10
6210;DHT22;3138;52.550;13.148;2022-07-17T12:05:34;21.80;56.80
6210;DHT22;3138;52.550;13.148;2022-07-17T12:08:07;22.00;55.70
6210;DHT22;3138;52.550;13.148;2022-07-17T12:10:34;21.50;55.70
6210;DHT22;3138;52.550;13.148;2022-07-17T12:13:03;22.00;56.40
6210;DHT22;3138;52.550;13.148;2022-07-17T12:15:38;21.90;55.00
6210;DHT22;3138;52.550;13.148;2022-07-17T12:18:05;22.20;57.20
6210;DHT22;3138;52.550;13.148;2022-07-17T12:20:43;22.40;56.80
6210;DHT22;3138;52.550;13.148;2022-07-17T12:26:05;22.40;55.50
6210;DHT22;3138;52.550;13.148;2022-07-17T12:28:32;22.40;53.90
6210;DHT22;3138;52.550;13.148;2022-07-17T12:30:59;22.40;53.30
6210;DHT22;3138;52.550;13.148;2022-07-17T12:33:26;22.60;51.40
6210;DHT22;3138;52.550;13.148;2022-07-17T12:35:53;22.20;50.40
6210;DHT22;3138;52.550;13.148;2022-07-17T12:38:20;22.50;51.40
6210;DHT22;3138;52.550;13.148;2022-07-17T12:40:47;22.40;50.60
6210;DHT22;3138;52.550;13.148;2022-07-17T12:43:15;22.80;51.40
6210;DHT22;3138;52.550;13.148;2022-07-17T12:45:42;22.90;54.00
6210;DHT22;3138;52.550;13.148;2022-07-17T12:48:08;23.00;51.10
6210;DHT22;3138;52.550;13.148;2022-07-17T12:50:35;22.90;50.90
6210;DHT22;3138;52.550;13.148;2022-07-17T12:53:02;22.90;51.10
6210;DHT22;3138;52.550;13.148;2022-07-17T12:55:29;22.90;50.70
6210;DHT22;3138;52.550;13.148;2022-07-17T12:57:55;22.70;51.80
6210;DHT22;3138;52.550;13.148;2022-07-17T13:00:24;23.00;56.50
6210;DHT22;3138;52.550;13.148;2022-07-17T13:02:50;23.30;50.60
6210;DHT22;3138;52.550;13.148;2022-07-17T13:05:17;23.20;53.10
6210;DHT22;3138;52.550;13.148;2022-07-17T13:07:44;23.30;51.10
6210;DHT22;3138;52.550;13.148;2022-07-17T13:10:11;23.30;50.00
6210;DHT22;3138;52.550;13.148;2022-07-17T13:12:38;23.20;50.50
6210;DHT22;3138;52.550;13.148;2022-07-17T13:15:06;23.30;48.70
6210;DHT22;3138;52.550;13.148;2022-07-17T13:17:34;23.50;49.50
6210;DHT22;3138;52.550;13.148;2022-07-17T13:20:03;23.20;49.40
6210;DHT22;3138;52.550;13.148;2022-07-17T13:22:31;23.30;49.50
6210;DHT22;3138;52.550;13.148;2022-07-17T13:24:57;23.10;48.40
6210;DHT22;3138;52.550;13.148;2022-07-17T13:27:24;23.40;49.80
6210;DHT22;3138;52.550;13.148;2022-07-17T13:29:51;23.10;49.00
6210;DHT22;3138;52.550;13.148;2022-07-17T13:32:17;23.30;48.70
6210;DHT22;3138;52.550;13.148;2022-07-17T13:34:46;23.40;48.90
6210;DHT22;3138;52.550;13.148;2022-07-17T13:37:14;23.20;48.90
6210;DHT22;3138;52.550;13.148;2022-07-17T13:39:41;23.40;48.30
6210;DHT22;3138;52.550;13.148;2022-07-17T13:42:07;23.60;50.70
6210;DHT22;3138;52.550;13.148;2022-07-17T13:44:34;23.80;49.20
6210;DHT22;3138;52.550;13.148;2022-07-17T13:47:01;23.80;48.30
6210;DHT22;3138;52.550;13.148;2022-07-17T13:49:28;23.70;46.70
6210;DHT22;3138;52.550;13.148;2022-07-17T13:51:56;23.80;46.90
6210;DHT22;3138;52.550;13.148;2022-07-17T13:54:23;23.80;49.20
6210;DHT22;3138;52.550;13.148;2022-07-17T13:56:50;23.50;47.20
6210;DHT22;3138;52.550;13.148;2022-07-17T13:59:18;23.60;46.80
6210;DHT22;3138;52.550;13.148;2022-07-17T14:01:45;23.70;47.30
6210;DHT22;3138;52.550;13.148;2022-07-17T14:04:12;23.90;48.00
6210;DHT22;3138;52.550;13.148;2022-07-17T14:06:38;23.90;50.60
6210;DHT22;3138;52.550;13.148;2022-07-17T14:09:07;24.10;52.20
6210;DHT22;3138;52.550;13.148;2022-07-17T14:11:35;24.20;47.80
6210;DHT22;3138;52.550;13.148;2022-07-17T14:14:01;24.20;49.00
6210;DHT22;3138;52.550;13.148;2022-07-17T14:16:28;24.00;49.40
6210;DHT22;3138;52.550;13.148;2022-07-17T14:18:55;23.70;48.80
6210;DHT22;3138;52.550;13.148;2022-07-17T14:21:25;23.90;47.50
6210;DHT22;3138;52.550;13.148;2022-07-17T14:23:52;23.70;46.60
6210;DHT22;3138;52.550;13.148;2022-07-17T14:26:20;23.60;47.20
6210;DHT22;3138;52.550;13.148;2022-07-17T14:28:47;23.80;49.90
6210;DHT22;3138;52.550;13.148;2022-07-17T14:31:14;23.80;46.40
6210;DHT22;3138;52.550;13.148;2022-07-17T14:33:41;24.20;47.10
6210;DHT22;3138;52.550;13.148;2022-07-17T14:36:08;24.00;47.30
6210;DHT22;3138;52.550;13.148;2022-07-17T14:38:35;23.80;45.90
6210;DHT22;3138;52.550;13.148;2022-07-17T14:41:02;23.60;45.70
6210;DHT22;3138;52.550;13.148;2022-07-17T14:43:30;23.60;45.70
6210;DHT22;3138;52.550;13.148;2022-07-17T14:45:57;23.50;45.90
6210;DHT22;3138;52.550;13.148;2022-07-17T14:48:24;23.50;46.20
6210;DHT22;3138;52.550;13.148;2022-07-17T14:50:51;23.80;46.60
6210;DHT22;3138;52.550;13.148;2022-07-17T14:53:19;24.20;48.40
6210;DHT22;3138;52.550;13.148;2022-07-17T14:55:45;24.30;45.80
6210;DHT22;3138;52.550;13.148;2022-07-17T14:58:12;23.80;45.30
6210;DHT22;3138;52.550;13.148;2022-07-17T15:00:40;23.90;46.80
6210;DHT22;3138;52.550;13.148;2022-07-17T15:03:07;23.90;44.80
6210;DHT22;3138;52.550;13.148;2022-07-17T15:05:34;23.90;44.20
6210;DHT22;3138;52.550;13.148;2022-07-17T15:08:01;23.80;45.80
6210;DHT22;3138;52.550;13.148;2022-07-17T15:10:29;24.00;48.00
6210;DHT22;3138;52.550;13.148;2022-07-17T15:12:56;23.90;45.50
6210;DHT22;3138;52.550;13.148;2022-07-17T15:15:22;23.70;44.40
6210;DHT22;3138;52.550;13.148;2022-07-17T15:17:50;24.30;49.00
6210;DHT22;3138;52.550;13.148;2022-07-17T15:20:17;24.00;44.40
6210;DHT22;3138;52.550;13.148;2022-07-17T15:22:44;23.90;44.70
6210;DHT22;3138;52.550;13.148;2022-07-17T15:25:11;24.00;45.00
6210;DHT22;3138;52.550;13.148;2022-07-17T15:27:38;24.20;43.10
6210;DHT22;3138;52.550;13.148;2022-07-17T15:30:06;24.40;42.30
6210;DHT22;3138;52.550;13.148;2022-07-17T15:32:33;24.20;41.90
6210;DHT22;3138;52.550;13.148;2022-07-17T15:35:02;24.10;41.90
6210;DHT22;3138;52.550;13.148;2022-07-17T15:37:29;24.00;41.90
6210;DHT22;3138;52.550;13.148;2022-07-17T15:39:56;23.60;44.00
6210;DHT22;3138;52.550;13.148;2022-07-17T15:42:25;23.70;43.90
6210;DHT22;3138;52.550;13.148;2022-07-17T15:44:51;23.90;43.90
6210;DHT22;3138;52.550;13.148;2022-07-17T15:47:18;23.80;44.00
6210;DHT22;3138;52.550;13.148;2022-07-17T15:49:45;23.90;45.70
6210;DHT22;3138;52.550;13.148;2022-07-17T15:52:13;24.00;47.40
6210;DHT22;3138;52.550;13.148;2022-07-17T15:54:40;24.00;48.30